Time;durP1;ratioP1;P1;durP2;ratioP2;P2;SDS_P1;SDS_P2;PMS_P1;PMS_P2;Temp;Humidity;BMP_temperature;BMP_pressure;BME280_temperature;BME280_humidity;BME280_pressure;Samples;Min_cycle;Max_cycle;Signal;HPM_P1;HPM_P2
2023/01/21 00:01:09;;;;;;;40.90;16.80;;;;;;;-1.35;100.00;102711.13;6218641;23;20022;-76
2023/01/21 00:03:36;;;;;;;33.22;15.10;;;;;;;-1.36;100.00;102712.22;6192869;23;20013;-76
2023/01/21 00:06:04;;;;;;;29.48;14.77;;;;;;;-1.36;100.00;102714.81;6219175;23;20013;-76
2023/01/21 00:08:30;;;;;;;28.58;15.05;;;;;;;-1.38;100.00;102711.75;6219594;23;20082;-76
2023/01/21 00:11:07;;;;;;;35.15;15.52;;;;;;;-1.38;100.00;102719.59;6219158;23;20104;-76
2023/01/21 00:13:34;;;;;;;32.65;15.18;;;;;;;-1.40;100.00;102730.34;6219187;23;20328;-76
2023/01/21 00:16:04;;;;;;;30.92;15.48;;;;;;;-1.40;100.00;102735.56;6218618;23;20013;-76
2023/01/21 00:18:32;;;;;;;28.63;14.90;;;;;;;-1.42;100.00;102740.34;6192643;23;20021;-76
2023/01/21 00:21:00;;;;;;;29.85;14.95;;;;;;;-1.45;100.00;102746.19;6219034;23;20421;-76
2023/01/21 00:23:26;;;;;;;38.90;15.93;;;;;;;-1.45;100.00;102755.84;6219595;23;20036;-76
2023/01/21 00:25:58;;;;;;;31.35;15.20;;;;;;;-1.46;100.00;102764.78;6218586;23;20009;-76
2023/01/21 00:28:27;;;;;;;34.10;15.88;;;;;;;-1.49;100.00;102760.16;6219327;23;20074;-76
2023/01/21 00:30:58;;;;;;;36.60;15.88;;;;;;;-1.51;100.00;102773.53;6217822;23;20021;-77
2023/01/21 00:33:25;;;;;;;31.50;16.23;;;;;;;-1.53;100.00;102769.69;6192336;23;20028;-76
2023/01/21 00:36:06;;;;;;;29.83;15.45;;;;;;;-1.54;100.00;102768.91;6218583;23;20048;-77
2023/01/21 00:38:34;;;;;;;35.20;15.93;;;;;;;-1.57;100.00;102772.13;6218831;23;20498;-76
2023/01/21 00:41:02;;;;;;;34.95;15.20;;;;;;;-1.57;100.00;102774.75;6218703;23;20221;-76
2023/01/21 00:43:29;;;;;;;31.45;13.82;;;;;;;-1.57;100.00;102782.59;6191931;23;20013;-76
2023/01/21 00:45:56;;;;;;;32.03;15.15;;;;;;;-1.57;100.00;102782.59;6191730;23;20079;-76
2023/01/21 00:48:23;;;;;;;29.63;14.00;;;;;;;-1.60;100.00;102780.59;6218986;23;20092;-77
2023/01/21 00:50:50;;;;;;;28.48;13.80;;;;;;;-1.59;100.00;102781.34;6218394;23;20017;-76
2023/01/21 00:53:17;;;;;;;30.85;13.73;;;;;;;-1.60;100.00;102785.81;6219057;23;20014;-76
2023/01/21 00:55:44;;;;;;;25.67;13.75;;;;;;;-1.61;100.00;102786.91;6192013;23;20021;-76
2023/01/21 00:58:10;;;;;;;33.33;14.30;;;;;;;-1.61;100.00;102788.75;6191398;23;20446;-76
2023/01/21 01:00:37;;;;;;;30.83;13.85;;;;;;;-1.62;100.00;102787.97;6219662;23;20088;-76
2023/01/21 01:03:04;;;;;;;29.30;13.20;;;;;;;-1.62;100.00;102787.22;6220145;23;20020;-76
2023/01/21 01:05:31;;;;;;;28.85;14.10;;;;;;;-1.63;100.00;102791.66;6220258;23;20020;-75
2023/01/21 01:07:57;;;;;;;27.77;14.27;;;;;;;-1.65;100.00;102795.66;6219744;23;20017;-76
2023/01/21 01:10:24;;;;;;;29.17;13.73;;;;;;;-1.66;100.00;102791.50;6220240;23;20022;-76
2023/01/21 01:12:51;;;;;;;29.13;13.48;;;;;;;-1.67;100.00;102792.59;6218896;23;20013;-76
2023/01/21 01:15:18;;;;;;;28.95;13.27;;;;;;;-1.69;100.00;102800.72;6220259;23;20440;-76
2023/01/21 01:17:44;;;;;;;27.95;13.20;;;;;;;-1.70;100.00;102807.03;6219720;23;20780;-76
2023/01/21 01:20:11;;;;;;;25.88;14.15;;;;;;;-1.71;100.00;102811.47;6219794;23;20009;-75
2023/01/21 01:22:37;;;;;;;30.15;14.55;;;;;;;-1.72;100.00;102809.94;6193303;23;20081;-78
2023/01/21 01:25:04;;;;;;;29.42;13.55;;;;;;;-1.75;100.00;102818.38;6219956;23;20017;-78
2023/01/21 01:27:31;;;;;;;27.05;13.65;;;;;;;-1.75;100.00;102820.22;6219582;23;20017;-75
2023/01/21 01:29:57;;;;;;;30.70;13.77;;;;;;;-1.77;100.00;102828.34;6219715;23;20021;-76
2023/01/21 01:32:24;;;;;;;28.40;13.60;;;;;;;-1.78;100.00;102834.66;6220342;23;20336;-76
2023/01/21 01:34:50;;;;;;;36.08;13.23;;;;;;;-1.78;100.00;102839.88;6219244;23;20481;-77
2023/01/21 01:37:17;;;;;;;31.10;14.48;;;;;;;-1.79;100.00;102848.78;6219900;23;20045;-77
2023/01/21 01:39:43;;;;;;;27.13;13.63;;;;;;;-1.79;100.00;102848.00;6219660;23;20076;-77
2023/01/21 01:42:14;;;;;;;31.20;13.88;;;;;;;-1.81;100.00;102853.53;6219083;23;20447;-76
2023/01/21 01:45:13;;;;;;;26.38;12.02;;;;;;;-1.81;100.00;102855.38;6219782;23;20048;-77
2023/01/21 01:47:43;;;;;;;26.73;12.20;;;;;;;-1.84;100.00;102854.13;6143717;23;20021;-77
2023/01/21 01:50:13;;;;;;;35.55;13.18;;;;;;;-1.83;100.00;102857.50;6219394;23;20025;-76
2023/01/21 01:52:42;;;;;;;25.90;12.48;;;;;;;-1.84;100.00;102855.97;6219749;23;20116;-76
2023/01/21 01:55:10;;;;;;;21.52;12.20;;;;;;;-1.85;100.00;102863.03;6219624;23;20384;-76
2023/01/21 01:57:42;;;;;;;30.95;13.20;;;;;;;-1.86;100.00;102865.94;6218812;23;20021;-77
2023/01/21 02:00:11;;;;;;;27.77;13.57;;;;;;;-1.88;100.00;102862.88;6219714;23;20084;-76
2023/01/21 02:02:39;;;;;;;28.23;12.77;;;;;;;-1.89;100.00;102875.16;6219855;23;20017;-76
2023/01/21 02:05:09;;;;;;;23.23;12.57;;;;;;;-1.91;100.00;102869.47;6219580;23;20017;-76
2023/01/21 02:07:39;;;;;;;24.58;12.90;;;;;;;-1.91;100.00;102884.34;6219189;23;20017;-76
2023/01/21 02:10:11;;;;;;;25.85;13.57;;;;;;;-1.92;100.00;102888.03;6219484;23;20040;-76
2023/01/21 02:12:40;;;;;;;27.35;12.73;;;;;;;-1.95;100.00;102897.25;6218958;23;20024;-76
2023/01/21 02:15:08;;;;;;;26.25;13.85;;;;;;;-1.96;100.00;102892.31;6219582;23;20379;-76
2023/01/21 02:18:07;;;;;;;29.13;13.55;;;;;;;-1.97;100.00;102896.78;6192225;23;20071;-76
2023/01/21 02:20:48;;;;;;;28.13;13.75;;;;;;;-1.97;100.00;102902.00;6168602;23;20021;-76
2023/01/21 02:23:45;;;;;;;31.55;13.65;;;;;;;-1.99;100.00;102909.34;6217602;23;20013;-76
2023/01/21 02:26:37;;;;;;;29.48;13.25;;;;;;;-2.01;100.00;102916.75;6217668;23;20067;-76
2023/01/21 02:29:46;;;;;;;23.70;12.20;;;;;;;-2.02;100.00;102912.59;6219254;23;20014;-76
2023/01/21 02:32:38;;;;;;;23.92;12.05;;;;;;;-2.04;100.00;102912.13;6096826;23;20358;-76
2023/01/21 02:35:13;;;;;;;;;;;;;;;-2.05;100.00;102910.56;6098151;23;20079;-77
2023/01/21 02:37:53;;;;;;;29.23;11.45;;;;;;;-2.07;100.00;102917.94;6098045;23;19921;-76
2023/01/21 02:40:37;;;;;;;25.45;11.57;;;;;;;-2.09;100.00;102922.69;6097189;23;20019;-76
2023/01/21 02:43:17;;;;;;;26.35;12.25;;;;;;;-2.10;100.00;102921.16;6073108;23;20534;-76
2023/01/21 02:46:02;;;;;;;26.48;13.15;;;;;;;-2.11;100.00;102930.03;6097370;23;20015;-76
2023/01/21 02:48:34;;;;;;;24.30;12.73;;;;;;;-2.12;100.00;102936.34;6099744;23;20097;-76
2023/01/21 02:51:01;;;;;;;26.70;12.85;;;;;;;-2.15;100.00;102935.09;6126794;23;20102;-76
2023/01/21 02:53:31;;;;;;;30.83;12.60;;;;;;;-2.16;100.00;102935.38;6127310;23;20413;-76
2023/01/21 02:56:23;;;;;;;25.60;12.88;;;;;;;-2.18;100.00;102938.28;6125876;23;20021;-76
2023/01/21 02:58:57;;;;;;;26.05;13.00;;;;;;;-2.20;100.00;102932.59;6116597;23;20551;-78
2023/01/21 03:01:39;;;;;;;23.70;13.20;;;;;;;-2.21;100.00;102943.34;6127421;23;20025;-76
2023/01/21 03:04:31;;;;;;;26.35;12.40;;;;;;;-2.23;100.00;102948.06;6127042;23;20030;-76
2023/01/21 03:07:25;;;;;;;23.25;12.43;;;;;;;-2.24;100.00;102949.16;6199690;23;20052;-76
2023/01/21 03:09:59;;;;;;;28.00;13.10;;;;;;;-2.25;100.00;102950.97;6218338;23;20486;-75
2023/01/21 03:12:29;;;;;;;24.70;11.80;;;;;;;-2.26;100.00;102952.06;6219722;23;20013;-75
2023/01/21 03:17:55;;;;;;;22.90;11.60;;;;;;;-2.27;100.00;102965.41;6219085;23;20025;-76
2023/01/21 03:20:28;;;;;;;28.00;13.05;;;;;;;-2.29;100.00;102970.91;6219772;23;20013;-75
2023/01/21 03:23:00;;;;;;;26.05;12.40;;;;;;;-2.30;100.00;102973.81;6218026;23;20020;-76
2023/01/21 03:25:30;;;;;;;25.85;12.18;;;;;;;-2.33;100.00;102969.19;6192981;23;20017;-77
2023/01/21 03:27:59;;;;;;;29.90;12.95;;;;;;;-2.35;100.00;102972.88;6218509;23;20021;-77
2023/01/21 03:30:27;;;;;;;27.08;12.43;;;;;;;-2.35;100.00;102966.88;6219499;23;20017;-77
2023/01/21 03:32:56;;;;;;;27.77;13.07;;;;;;;-2.36;100.00;102962.72;6219011;23;20017;-77
2023/01/21 03:35:27;;;;;;;27.92;13.02;;;;;;;-2.37;100.00;102966.41;6219465;23;20466;-77
2023/01/21 03:38:08;;;;;;;31.67;12.25;;;;;;;-2.38;100.00;102983.88;6217880;23;20391;-78
2023/01/21 03:40:42;;;;;;;24.88;12.68;;;;;;;-2.40;100.00;102980.81;6192298;23;20013;-78
2023/01/21 03:43:09;;;;;;;23.92;11.38;;;;;;;-2.43;100.00;102976.22;6219365;23;20013;-77
2023/01/21 03:45:59;;;;;;;24.92;12.38;;;;;;;-2.44;100.00;102982.50;6219337;23;20021;-75
2023/01/21 03:48:49;;;;;;;26.10;11.05;;;;;;;-2.47;100.00;102975.25;6192527;22;20013;-77
2023/01/21 03:51:21;;;;;;;27.52;12.43;;;;;;;-2.48;100.00;102973.72;6193004;23;20017;-77
2023/01/21 03:53:55;;;;;;;29.42;12.93;;;;;;;-2.49;100.00;102971.41;6218690;23;20017;-78
2023/01/21 03:56:23;;;;;;;26.83;12.75;;;;;;;-2.51;100.00;102973.53;6219862;23;20021;-78
2023/01/21 03:58:50;;;;;;;28.15;12.25;;;;;;;-2.52;100.00;102970.16;6218696;23;20017;-77
2023/01/21 04:01:16;;;;;;;23.35;11.50;;;;;;;-2.52;100.00;102980.59;6219738;23;20013;-77
2023/01/21 04:03:43;;;;;;;27.80;13.00;;;;;;;-2.54;100.00;102980.09;6219174;23;20462;-77
2023/01/21 04:06:18;;;;;;;26.98;12.80;;;;;;;-2.54;100.00;102977.50;6192522;23;20028;-75
2023/01/21 04:08:45;;;;;;;29.02;12.25;;;;;;;-2.56;100.00;102976.25;6219114;23;20027;-75
2023/01/21 04:11:13;;;;;;;27.73;12.60;;;;;;;-2.57;100.00;102985.91;6218930;23;20037;-75
2023/01/21 04:13:39;;;;;;;24.38;12.20;;;;;;;-2.58;100.00;102986.97;6219096;23;20018;-75
2023/01/21 04:16:07;;;;;;;28.30;13.10;;;;;;;-2.60;100.00;102996.94;6218961;23;20017;-75
2023/01/21 04:18:34;;;;;;;23.23;12.20;;;;;;;-2.62;100.00;102995.69;6191845;23;20025;-78
2023/01/21 04:21:00;;;;;;;24.48;13.00;;;;;;;-2.63;100.00;103005.34;6218519;23;20469;-77
2023/01/21 04:23:27;;;;;;;23.90;11.77;;;;;;;-2.63;100.00;103004.56;6219263;23;20507;-75
2023/01/21 04:25:53;;;;;;;29.30;12.70;;;;;;;-2.64;100.00;102997.81;6191725;23;20048;-75
2023/01/21 04:28:20;;;;;;;25.13;12.57;;;;;;;-2.66;100.00;103000.72;6219374;23;20439;-75
2023/01/21 04:30:47;;;;;;;25.33;12.65;;;;;;;-2.66;100.00;103008.53;6218990;23;20017;-76
2023/01/21 04:33:14;;;;;;;23.02;12.27;;;;;;;-2.69;100.00;103011.72;6218588;23;20023;-76
2023/01/21 04:35:41;;;;;;;25.98;12.75;;;;;;;-2.70;100.00;103020.59;6218377;23;20056;-76
2023/01/21 04:38:07;;;;;;;26.13;11.82;;;;;;;-2.71;100.00;103014.63;6218778;23;20021;-76
2023/01/21 04:40:34;;;;;;;24.13;11.95;;;;;;;-2.71;100.00;103014.63;6218917;23;20017;-76
2023/01/21 04:43:00;;;;;;;27.83;13.00;;;;;;;-2.72;100.00;103009.69;6218538;23;20017;-76
2023/01/21 04:45:27;;;;;;;25.13;11.73;;;;;;;-2.72;100.00;103012.31;6219162;23;20044;-75
2023/01/21 04:47:53;;;;;;;24.85;12.73;;;;;;;-2.75;100.00;103016.25;6218617;23;20474;-75
2023/01/21 04:50:20;;;;;;;25.85;12.60;;;;;;;-2.75;100.00;103007.69;6211812;23;20024;-75
2023/01/21 04:52:46;;;;;;;32.67;12.73;;;;;;;-2.75;100.00;103012.88;6218810;23;20013;-77
2023/01/21 04:55:13;;;;;;;26.38;12.13;;;;;;;-2.75;100.00;103015.50;6218661;23;20028;-77
2023/01/21 04:57:39;;;;;;;25.33;12.02;;;;;;;-2.76;100.00;103016.56;6218809;23;20013;-77
2023/01/21 05:00:07;;;;;;;22.92;11.65;;;;;;;-2.78;100.00;103023.91;6218570;23;20017;-78
2023/01/21 05:02:34;;;;;;;26.08;12.52;;;;;;;-2.78;100.00;103027.28;6218797;22;20471;-75
2023/01/21 05:05:01;;;;;;;27.90;13.18;;;;;;;-2.80;100.00;103026.06;6216450;23;20459;-75
2023/01/21 05:07:27;;;;;;;32.95;12.73;;;;;;;-2.81;100.00;103024.50;6218775;22;20460;-74
2023/01/21 05:09:54;;;;;;;26.55;12.63;;;;;;;-2.83;100.00;103027.41;6216424;23;20028;-77
2023/01/21 05:12:20;;;;;;;24.45;12.07;;;;;;;-2.83;100.00;103037.84;6218912;23;20017;-77
2023/01/21 05:14:47;;;;;;;25.02;13.32;;;;;;;-2.84;100.00;103038.13;6216950;23;20013;-75
2023/01/21 05:17:13;;;;;;;28.15;13.02;;;;;;;-2.87;100.00;103047.31;6218775;23;20013;-74
2023/01/21 05:19:40;;;;;;;27.00;11.73;;;;;;;-2.87;100.00;103047.31;6218157;22;20044;-75
2023/01/21 05:22:06;;;;;;;30.08;13.10;;;;;;;-2.87;100.00;103052.50;6218494;22;20013;-77
2023/01/21 05:24:33;;;;;;;24.98;12.40;;;;;;;-2.87;100.00;103051.75;6218407;23;20017;-77
2023/01/21 05:27:00;;;;;;;29.83;14.25;;;;;;;-2.88;100.00;103055.41;6218451;23;20024;-75
2023/01/21 05:29:26;;;;;;;28.17;12.85;;;;;;;-2.89;100.00;103065.06;6218770;22;20014;-75
2023/01/21 05:31:52;;;;;;;23.13;13.10;;;;;;;-2.89;100.00;103067.66;6218026;22;20020;-76
2023/01/21 05:34:19;;;;;;;24.45;12.73;;;;;;;-2.90;100.00;103070.56;6218218;22;20088;-75
2023/01/21 05:36:46;;;;;;;27.83;12.77;;;;;;;-2.92;100.00;103070.84;6218531;22;20020;-75
2023/01/21 05:39:12;;;;;;;26.80;12.40;;;;;;;-2.93;100.00;103068.53;6218122;23;20017;-75
2023/01/21 05:41:39;;;;;;;29.05;13.38;;;;;;;-2.93;100.00;103073.75;6218096;23;20329;-76
2023/01/21 05:44:07;;;;;;;28.77;12.90;;;;;;;-2.93;100.00;103076.34;6218263;22;20052;-75
2023/01/21 05:46:34;;;;;;;25.23;12.38;;;;;;;-2.93;100.00;103071.91;6219720;22;20019;-75
2023/01/21 05:49:00;;;;;;;25.25;13.23;;;;;;;-2.93;100.00;103084.94;6217225;23;20017;-75
2023/01/21 05:51:27;;;;;;;27.13;13.73;;;;;;;-2.92;100.00;103090.94;6220094;23;20466;-75
2023/01/21 05:53:54;;;;;;;29.40;13.68;;;;;;;-2.90;100.00;103088.81;6219323;23;20482;-76
2023/01/21 05:56:20;;;;;;;30.13;13.15;;;;;;;-2.88;100.00;103089.31;6219850;22;20013;-75
2023/01/21 05:58:47;;;;;;;29.25;13.02;;;;;;;-2.84;100.00;103098.09;6192838;23;20028;-76
2023/01/21 06:01:13;;;;;;;29.65;12.98;;;;;;;-2.82;100.00;103101.19;6220038;22;20462;-75
2023/01/21 06:03:40;;;;;;;33.50;13.88;;;;;;;-2.80;100.00;103101.66;6219184;22;20396;-76
2023/01/21 06:06:07;;;;;;;27.27;13.48;;;;;;;-2.78;100.00;103108.09;6219868;22;20056;-76
2023/01/21 06:08:33;;;;;;;31.33;13.85;;;;;;;-2.75;100.00;103106.75;6219726;22;20075;-75
2023/01/21 06:11:00;;;;;;;27.67;13.45;;;;;;;-2.74;100.00;103116.88;6219712;22;20076;-75
2023/01/21 06:13:27;;;;;;;22.77;10.90;;;;;;;-2.75;100.00;103123.16;6218314;23;20021;-75
2023/01/21 06:15:57;;;;;;;32.78;13.82;;;;;;;-2.80;100.00;103120.66;6219150;23;20017;-75
2023/01/21 06:18:23;;;;;;;37.15;14.93;;;;;;;-2.78;100.00;103121.13;6219479;22;20017;-75
2023/01/21 06:20:50;;;;;;;34.55;13.35;;;;;;;-2.76;100.00;103126.06;6217460;23;20470;-76
2023/01/21 06:23:17;;;;;;;40.35;15.15;;;;;;;-2.77;100.00;103134.94;6218297;23;20021;-75
2023/01/21 06:25:43;;;;;;;36.90;16.33;;;;;;;-2.79;100.00;103132.63;6219550;22;20017;-75
2023/01/21 06:28:10;;;;;;;33.15;13.85;;;;;;;-2.78;100.00;103138.63;6218061;23;20013;-76
2023/01/21 06:30:37;;;;;;;48.35;15.60;;;;;;;-2.78;100.00;103152.44;6219401;23;20021;-75
2023/01/21 06:33:04;;;;;;;30.67;13.90;;;;;;;-2.76;100.00;103145.09;6217399;23;20021;-75
2023/01/21 06:35:30;;;;;;;35.47;15.15;;;;;;;-2.75;100.00;103156.28;6217979;23;20017;-75
2023/01/21 06:37:57;;;;;;;47.92;16.42;;;;;;;-2.74;100.00;103158.59;6192329;23;20036;-74
2023/01/21 06:40:24;;;;;;;42.13;16.05;;;;;;;-2.76;100.00;103163.34;6219782;23;20020;-75
2023/01/21 06:42:52;;;;;;;54.72;16.10;;;;;;;-2.76;100.00;103171.16;6219016;22;20076;-75
2023/01/21 06:45:19;;;;;;;42.15;14.60;;;;;;;-2.72;100.00;103168.75;6219731;22;20107;-76
2023/01/21 06:47:45;;;;;;;36.95;15.85;;;;;;;-2.71;100.00;103180.72;6218440;22;20017;-75
2023/01/21 06:50:14;;;;;;;39.80;15.75;;;;;;;-2.69;100.00;103179.38;6218933;22;20090;-76
2023/01/21 06:52:43;;;;;;;38.22;14.80;;;;;;;-2.67;100.00;103183.53;6219335;23;20021;-75
2023/01/21 06:55:10;;;;;;;42.05;15.85;;;;;;;-2.67;100.00;103189.53;6219428;23;20017;-75
2023/01/21 06:57:38;;;;;;;45.45;16.00;;;;;;;-2.66;100.00;103187.69;6192235;23;20088;-76
2023/01/21 07:00:05;;;;;;;44.75;14.52;;;;;;;-2.67;100.00;103192.13;6219158;23;20104;-76
2023/01/21 07:02:32;;;;;;;43.97;15.93;;;;;;;-2.65;100.00;103197.06;6192047;23;20021;-76
2023/01/21 07:04:59;;;;;;;42.22;13.82;;;;;;;-2.66;100.00;103192.91;6192473;23;20017;-76
2023/01/21 07:07:26;;;;;;;42.83;14.82;;;;;;;-2.65;100.00;103194.44;6219669;23;20020;-76
2023/01/21 07:09:52;;;;;;;40.00;16.13;;;;;;;-2.63;100.00;103200.91;6218970;23;20076;-77
2023/01/21 07:12:19;;;;;;;45.50;16.20;;;;;;;-2.60;100.00;103197.75;6167828;23;20352;-76
2023/01/21 07:14:45;;;;;;;47.63;15.93;;;;;;;-2.58;100.00;103194.84;6218745;23;20020;-77
2023/01/21 07:17:12;;;;;;;55.05;16.05;;;;;;;-2.56;100.00;103196.09;6219614;23;20310;-76
2023/01/21 07:19:38;;;;;;;34.78;15.25;;;;;;;-2.56;100.00;103192.72;6219656;23;20028;-76
2023/01/21 07:22:05;;;;;;;52.03;17.30;;;;;;;-2.54;100.00;103199.19;6219463;23;20029;-76
2023/01/21 07:24:32;;;;;;;45.22;16.42;;;;;;;-2.53;100.00;103200.75;6219491;23;20379;-76
2023/01/21 07:26:58;;;;;;;55.92;16.58;;;;;;;-2.53;100.00;103207.78;6219159;23;20013;-77
2023/01/21 07:29:26;;;;;;;45.72;16.42;;;;;;;-2.51;100.00;103209.03;6218925;23;20017;-76
2023/01/21 07:31:53;;;;;;;43.05;16.02;;;;;;;-2.49;100.00;103213.97;6218675;23;20521;-77
2023/01/21 07:34:19;;;;;;;38.40;15.85;;;;;;;-2.48;100.00;103215.53;6193110;23;20096;-77
2023/01/21 07:36:46;;;;;;;42.25;15.50;;;;;;;-2.47;100.00;103217.06;6217739;23;20017;-77
2023/01/21 07:39:12;;;;;;;41.42;15.07;;;;;;;-2.46;100.00;103223.84;6216857;23;20017;-76
2023/01/21 07:41:39;;;;;;;44.00;15.55;;;;;;;-2.47;100.00;103236.09;6217564;23;20018;-77
2023/01/21 07:44:10;;;;;;;65.07;15.30;;;;;;;-2.48;100.00;103236.38;6189573;23;20013;-77
2023/01/21 07:46:36;;;;;;;46.80;15.75;;;;;;;-2.48;100.00;103245.00;6193286;23;20439;-77
2023/01/21 07:49:03;;;;;;;45.00;14.77;;;;;;;-2.48;100.00;103246.81;6222188;22;20016;-77
2023/01/21 07:51:30;;;;;;;37.80;15.18;;;;;;;-2.49;100.00;103250.50;6220257;23;20021;-78
2023/01/21 07:53:57;;;;;;;66.95;16.65;;;;;;;-2.48;100.00;103246.81;6219795;23;20036;-78
2023/01/21 07:56:25;;;;;;;48.92;16.30;;;;;;;-2.47;100.00;103256.19;6193706;23;20177;-76
2023/01/21 07:58:52;;;;;;;48.15;15.40;;;;;;;-2.45;100.00;103267.13;6167122;23;20021;-76
2023/01/21 08:01:18;;;;;;;43.85;15.85;;;;;;;-2.50;100.00;103270.59;6220005;23;20017;-77
2023/01/21 08:03:45;;;;;;;58.47;16.05;;;;;;;-2.47;100.00;103279.66;6168410;23;20100;-78
2023/01/21 08:06:11;;;;;;;49.80;16.10;;;;;;;-2.48;100.00;103285.94;6166886;23;20022;-78
2023/01/21 08:08:38;;;;;;;43.90;16.35;;;;;;;-2.49;100.00;103295.63;6219521;23;20013;-78
2023/01/21 08:11:05;;;;;;;47.28;15.73;;;;;;;-2.48;100.00;103309.44;6219171;23;20047;-78
2023/01/21 08:13:31;;;;;;;46.40;16.92;;;;;;;-2.46;100.00;103312.53;6218961;23;20024;-78
2023/01/21 08:15:58;;;;;;;39.10;15.65;;;;;;;-2.42;100.00;103303.06;6219260;23;20013;-79
2023/01/21 08:18:24;;;;;;;52.13;16.35;;;;;;;-2.39;100.00;103299.84;6219724;23;20473;-77
2023/01/21 08:20:56;;;;;;;44.90;17.42;;;;;;;-2.35;100.00;103300.81;6219645;23;20067;-77
2023/01/21 08:23:23;;;;;;;43.10;17.55;;;;;;;-2.29;100.00;103299.69;6168292;23;20017;-78
2023/01/21 08:25:49;;;;;;;52.92;16.55;;;;;;;-2.23;100.00;103316.00;6192278;23;20021;-78
2023/01/21 08:28:16;;;;;;;46.55;16.77;;;;;;;-2.20;100.00;103315.44;6218981;23;20435;-79
2023/01/21 08:30:43;;;;;;;46.05;18.27;;;;;;;-2.18;100.00;103303.66;6192629;23;20439;-77
2023/01/21 08:33:10;;;;;;;52.50;19.58;;;;;;;-2.16;100.00;103306.75;6219499;23;20017;-78
2023/01/21 08:35:37;;;;;;;49.13;17.20;;;;;;;-2.08;100.00;103307.91;6219751;23;20013;-78
2023/01/21 08:38:03;;;;;;;48.95;17.40;;;;;;;-2.07;100.00;103310.22;6219013;23;20013;-77
2023/01/21 08:40:30;;;;;;;48.67;18.67;;;;;;;-2.00;100.00;103315.06;6193156;23;20025;-77
2023/01/21 08:43:02;;;;;;;46.15;18.17;;;;;;;-1.96;100.00;103313.41;6218313;23;20024;-78
2023/01/21 08:45:29;;;;;;;47.80;18.38;;;;;;;-1.89;100.00;103310.41;6219650;23;20013;-78
2023/01/21 08:47:55;;;;;;;52.58;19.30;;;;;;;-1.85;100.00;103312.16;6219118;23;20013;-76
2023/01/21 08:50:22;;;;;;;44.90;17.58;;;;;;;-1.83;100.00;103322.28;6218849;23;20091;-77
2023/01/21 08:52:55;;;;;;;57.65;19.20;;;;;;;-1.82;100.00;103321.22;6219265;23;20017;-77
2023/01/21 08:55:26;;;;;;;44.58;18.50;;;;;;;-1.79;100.00;103326.66;6192233;23;20017;-76
2023/01/21 08:57:54;;;;;;;47.38;18.95;;;;;;;-1.74;100.00;103329.16;6218691;23;20099;-77
2023/01/21 09:00:22;;;;;;;52.25;18.65;;;;;;;-1.70;100.00;103326.75;6219312;23;20025;-78
2023/01/21 09:02:49;;;;;;;50.38;17.65;;;;;;;-1.64;100.00;103332.63;6192337;23;20411;-76
2023/01/21 09:05:17;;;;;;;43.83;17.00;;;;;;;-1.59;100.00;103340.34;6219224;23;20029;-76
2023/01/21 09:07:45;;;;;;;52.85;18.60;;;;;;;-1.54;100.00;103337.63;6219153;23;20343;-76
2023/01/21 09:10:12;;;;;;;46.72;18.77;;;;;;;-1.51;100.00;103340.44;6192354;23;20017;-76
2023/01/21 09:12:41;;;;;;;51.97;19.63;;;;;;;-1.48;100.00;103342.47;6218712;23;20017;-76
2023/01/21 09:15:08;;;;;;;50.80;19.40;;;;;;;-1.46;100.00;103331.72;6218903;23;20013;-76
2023/01/21 09:17:34;;;;;;;49.80;18.13;;;;;;;-1.42;100.00;103345.75;6219222;23;20013;-76
2023/01/21 09:20:01;;;;;;;47.15;18.90;;;;;;;-1.40;100.00;103348.84;6192723;23;20027;-77
2023/01/21 09:22:28;;;;;;;41.88;17.58;;;;;;;-1.38;100.00;103337.03;6193655;23;20465;-76
2023/01/21 09:24:54;;;;;;;45.10;18.70;;;;;;;-1.34;100.00;103352.91;6193454;23;20024;-77
2023/01/21 09:27:26;;;;;;;48.75;18.75;;;;;;;-1.33;100.00;103338.75;6220159;23;20052;-76
2023/01/21 09:29:53;;;;;;;46.95;19.48;;;;;;;-1.29;100.00;103357.25;6220022;23;20021;-76
2023/01/21 09:32:20;;;;;;;46.00;18.15;;;;;;;-1.25;100.00;103352.97;6220776;23;20023;-80
2023/01/21 09:34:46;;;;;;;48.67;18.00;;;;;;;-1.21;100.00;103351.31;6193951;23;20451;-77
2023/01/21 09:37:13;;;;;;;43.67;17.05;;;;;;;-1.18;100.00;103348.88;6220024;23;20024;-76
2023/01/21 09:39:39;;;;;;;48.00;18.50;;;;;;;-1.17;100.00;103353.03;6220387;23;20455;-76
2023/01/21 09:42:16;;;;;;;44.17;17.90;;;;;;;-1.10;100.00;103360.47;6219830;23;20084;-76
2023/01/21 09:44:47;;;;;;;51.75;18.92;;;;;;;-1.06;100.00;103359.59;6220840;23;20017;-76
2023/01/21 09:47:26;;;;;;;47.63;17.92;;;;;;;-1.00;100.00;103360.25;6220807;23;20149;-76
2023/01/21 09:49:57;;;;;;;42.20;17.48;;;;;;;-0.97;100.00;103359.66;6219703;23;20025;-76
2023/01/21 09:52:40;;;;;;;42.45;17.05;;;;;;;-0.90;100.00;103374.94;6194107;23;20021;-77
2023/01/21 09:55:15;;;;;;;44.30;17.90;;;;;;;-0.87;100.00;103384.81;6220054;23;20005;-77
2023/01/21 09:58:19;;;;;;;43.75;15.90;;;;;;;-0.86;100.00;103375.88;6220766;23;20024;-77
2023/01/21 10:00:57;;;;;;;42.63;16.77;;;;;;;-0.82;100.00;103380.22;6193720;23;20080;-77
2023/01/21 10:03:38;;;;;;;48.20;17.65;;;;;;;-0.75;100.00;103370.09;6220764;23;20009;-77
2023/01/21 10:06:15;;;;;;;38.10;17.15;;;;;;;-0.68;100.00;103374.91;6220157;23;20384;-76
2023/01/21 10:09:00;;;;;;;45.40;16.85;;;;;;;-0.64;100.00;103380.34;6220614;23;20017;-76
2023/01/21 10:11:33;;;;;;;44.60;18.58;;;;;;;-0.61;100.00;103371.88;6220658;23;20021;-76
2023/01/21 10:14:11;;;;;;;48.08;18.27;;;;;;;-0.59;100.00;103377.59;6220088;23;20017;-76
2023/01/21 10:17:01;;;;;;;43.85;16.70;;;;;;;-0.57;100.00;103375.47;6220713;23;20017;-76
2023/01/21 10:19:44;;;;;;;47.70;19.17;;;;;;;-0.53;100.00;103371.19;6220644;23;20045;-76
2023/01/21 10:22:14;;;;;;;43.72;17.40;;;;;;;-0.44;100.00;103370.16;6193271;23;20024;-76
2023/01/21 10:25:10;;;;;;;48.55;18.23;;;;;;;-0.47;100.00;103369.97;6219922;23;20075;-76
2023/01/21 10:27:41;;;;;;;47.92;18.25;;;;;;;-0.49;100.00;103378.13;6220573;23;20017;-77
2023/01/21 10:30:21;;;;;;;44.45;18.45;;;;;;;-0.47;100.00;103380.44;6220052;23;20017;-77
2023/01/21 10:32:51;;;;;;;46.97;19.33;;;;;;;-0.47;100.00;103389.06;6219850;23;20053;-77
2023/01/21 10:35:37;;;;;;;52.72;17.83;;;;;;;-0.44;100.00;103395.56;6220492;23;20084;-78
2023/01/21 10:38:17;;;;;;;44.85;17.55;;;;;;;-0.47;100.00;103399.53;6219649;23;20013;-78
2023/01/21 10:41:01;;;;;;;43.45;16.08;;;;;;;-0.41;100.00;103403.59;6222201;23;20076;-76
2023/01/21 10:43:33;;;;;;;43.10;17.33;;;;;;;-0.36;100.00;103397.44;6220262;23;20045;-75
2023/01/21 10:46:17;;;;;;;37.50;16.48;;;;;;;-0.30;100.00;103405.94;6219948;23;20071;-74
2023/01/21 10:49:05;;;;;;;39.75;16.55;;;;;;;-0.25;100.00;103408.44;6220006;23;20048;-77
2023/01/21 10:51:41;;;;;;;43.10;16.40;;;;;;;-0.19;100.00;103397.53;6193453;23;20440;-75
2023/01/21 10:54:47;;;;;;;50.67;18.30;;;;;;;-0.12;100.00;103402.34;6219459;23;20017;-76
2023/01/21 10:57:32;;;;;;;46.35;16.58;;;;;;;-0.04;100.00;103394.53;6069543;23;20344;-76
2023/01/21 11:00:01;;;;;;;41.45;16.40;;;;;;;0.04;100.00;103405.31;6069103;23;20027;-78
2023/01/21 11:02:32;;;;;;;40.50;17.40;;;;;;;0.03;100.00;103404.53;6069467;23;20149;-77
2023/01/21 11:05:03;;;;;;;41.78;17.70;;;;;;;0.08;100.00;103406.25;6070940;23;20095;-77
2023/01/21 11:07:36;;;;;;;41.35;16.55;;;;;;;0.13;100.00;103404.28;6071306;23;20019;-77
2023/01/21 11:10:04;;;;;;;42.30;16.05;;;;;;;0.18;100.00;103401.53;6071211;23;20187;-77
2023/01/21 11:12:31;;;;;;;35.15;15.48;;;;;;;0.23;100.00;103400.63;6069621;23;20087;-78
2023/01/21 11:15:12;;;;;;;43.97;15.57;;;;;;;0.23;100.00;103406.63;6044765;23;20019;-78
2023/01/21 11:17:40;;;;;;;41.33;17.17;;;;;;;0.26;100.00;103407.88;6069508;23;20083;-77
2023/01/21 11:20:27;;;;;;;38.97;16.65;;;;;;;0.23;100.00;103411.88;6044737;23;20042;-78